Time;durP1;ratioP1;P1;durP2;ratioP2;P2;SDS_P1;SDS_P2;PMS_P1;PMS_P2;Temp;Humidity;BMP_temperature;BMP_pressure;BME280_temperature;BME280_humidity;BME280_pressure;Samples;Min_cycle;Max_cycle;Signal;HPM_P1;HPM_P2
2023/10/27 00:00:47;;;;;;;44.33;24.95;;;;;;;;;;10402143;28;20037;-83
2023/10/27 00:05:48;;;;;;;48.17;27.00;;;;;;;;;;10421417;28;20362;-81
2023/10/27 00:10:49;;;;;;;53.72;28.50;;;;;;;;;;10393988;28;20030;-81
2023/10/27 00:15:51;;;;;;;46.63;27.73;;;;;;;;;;10409969;28;20045;-82
2023/10/27 00:20:52;;;;;;;44.22;25.25;;;;;;;;;;10410990;28;20040;-81
2023/10/27 00:25:53;;;;;;;48.13;27.20;;;;;;;;;;10408407;28;20140;-81
2023/10/27 00:30:54;;;;;;;43.67;24.13;;;;;;;;;;10409055;28;20037;-82
2023/10/27 00:35:55;;;;;;;94.70;44.10;;;;;;;;;;10414955;28;20045;-80
2023/10/27 00:40:56;;;;;;;46.28;25.88;;;;;;;;;;10408097;28;20056;-80
2023/10/27 00:45:59;;;;;;;62.70;33.47;;;;;;;;;;10413644;28;20038;-80
2023/10/27 00:51:00;;;;;;;60.80;31.80;;;;;;;;;;10410217;28;20626;-82
2023/10/27 00:56:02;;;;;;;58.43;32.20;;;;;;;;;;10408468;28;20041;-80
2023/10/27 01:01:05;;;;;;;63.57;32.73;;;;;;;;;;10408499;28;20084;-81
2023/10/27 01:06:06;;;;;;;74.40;43.20;;;;;;;;;;10407293;28;20038;-82
2023/10/27 01:11:08;;;;;;;87.83;44.57;;;;;;;;;;10418369;28;20087;-80
2023/10/27 01:16:09;;;;;;;61.93;30.37;;;;;;;;;;10398076;28;20040;-81
2023/10/27 01:21:10;;;;;;;64.97;31.60;;;;;;;;;;10416064;28;20040;-81
2023/10/27 01:26:11;;;;;;;38.33;21.43;;;;;;;;;;10406873;28;20427;-82
2023/10/27 01:31:12;;;;;;;32.77;19.10;;;;;;;;;;10406872;28;20038;-80
2023/10/27 01:36:13;;;;;;;35.37;21.87;;;;;;;;;;10413543;28;20155;-80
2023/10/27 01:41:14;;;;;;;39.63;21.20;;;;;;;;;;10417508;28;20083;-80
2023/10/27 01:46:15;;;;;;;51.10;24.73;;;;;;;;;;10411992;28;20731;-80
2023/10/27 01:51:16;;;;;;;29.87;18.00;;;;;;;;;;10408283;28;20108;-80
2023/10/27 01:56:17;;;;;;;27.63;15.63;;;;;;;;;;10407908;28;20705;-81
2023/10/27 02:01:18;;;;;;;30.27;16.90;;;;;;;;;;10405073;28;20029;-81
2023/10/27 02:06:26;;;;;;;47.43;23.23;;;;;;;;;;10418869;28;20033;-82
2023/10/27 02:11:27;;;;;;;109.70;39.70;;;;;;;;;;10406674;28;20033;-82
2023/10/27 02:16:28;;;;;;;111.73;44.50;;;;;;;;;;10404945;28;20029;-82
2023/10/27 02:21:29;;;;;;;53.47;25.33;;;;;;;;;;10407166;28;20112;-80
2023/10/27 02:26:30;;;;;;;48.40;24.83;;;;;;;;;;10403529;28;20049;-82
2023/10/27 02:31:31;;;;;;;40.93;23.57;;;;;;;;;;10402537;28;20087;-81
2023/10/27 02:36:32;;;;;;;24.57;15.57;;;;;;;;;;10414766;28;20047;-81
2023/10/27 02:41:33;;;;;;;72.47;23.03;;;;;;;;;;10393518;28;20652;-82
2023/10/27 02:46:34;;;;;;;42.47;22.77;;;;;;;;;;10401188;28;20038;-81
2023/10/27 02:51:35;;;;;;;38.53;22.13;;;;;;;;;;10395429;28;20038;-83
2023/10/27 02:56:36;;;;;;;28.73;16.30;;;;;;;;;;10403113;28;20053;-84
2023/10/27 03:01:37;;;;;;;33.00;16.57;;;;;;;;;;10403787;28;20494;-81
2023/10/27 03:06:38;;;;;;;33.13;17.87;;;;;;;;;;10401102;28;20033;-82
2023/10/27 03:11:39;;;;;;;30.10;17.03;;;;;;;;;;10382337;28;20030;-80
2023/10/27 03:16:40;;;;;;;25.77;14.00;;;;;;;;;;10406280;28;20517;-80
2023/10/27 03:21:41;;;;;;;27.10;16.57;;;;;;;;;;10417252;28;20037;-81
2023/10/27 03:26:42;;;;;;;29.87;17.03;;;;;;;;;;10401505;28;20060;-81
2023/10/27 03:31:43;;;;;;;29.37;15.90;;;;;;;;;;10401214;28;20584;-84
2023/10/27 03:36:44;;;;;;;29.63;17.03;;;;;;;;;;10404137;28;20060;-79
2023/10/27 03:41:45;;;;;;;34.90;18.37;;;;;;;;;;10398691;28;20051;-82
2023/10/27 03:46:46;;;;;;;26.70;15.00;;;;;;;;;;10402091;28;20084;-84
2023/10/27 03:51:47;;;;;;;22.43;13.33;;;;;;;;;;10428515;28;20099;-81
2023/10/27 03:56:48;;;;;;;24.87;14.50;;;;;;;;;;10419948;28;20041;-84
2023/10/27 04:01:49;;;;;;;27.33;14.67;;;;;;;;;;10406429;28;20108;-84
2023/10/27 04:06:50;;;;;;;37.10;15.17;;;;;;;;;;10421501;28;20088;-81
2023/10/27 04:11:51;;;;;;;23.93;13.33;;;;;;;;;;10405506;28;20069;-80
2023/10/27 04:16:59;;;;;;;25.10;13.90;;;;;;;;;;10402231;28;20124;-81
2023/10/27 04:22:01;;;;;;;55.30;20.83;;;;;;;;;;10401919;28;20044;-81
2023/10/27 04:27:08;;;;;;;28.47;16.20;;;;;;;;;;10400458;28;20057;-80
2023/10/27 04:32:09;;;;;;;26.40;14.90;;;;;;;;;;10388712;28;20038;-81
2023/10/27 04:37:10;;;;;;;40.77;18.20;;;;;;;;;;10401525;28;20123;-84
2023/10/27 04:42:11;;;;;;;25.90;15.03;;;;;;;;;;10401740;28;20032;-83
2023/10/27 04:47:12;;;;;;;36.80;20.10;;;;;;;;;;10401333;28;20030;-80
2023/10/27 04:52:20;;;;;;;77.93;35.10;;;;;;;;;;10404359;28;20027;-81
2023/10/27 04:57:21;;;;;;;70.33;34.50;;;;;;;;;;10408711;28;20128;-81
2023/10/27 05:02:22;;;;;;;106.93;48.30;;;;;;;;;;10408964;28;20095;-85
2023/10/27 05:07:24;;;;;;;100.60;52.10;;;;;;;;;;10408003;28;20108;-81
2023/10/27 05:12:25;;;;;;;120.73;61.30;;;;;;;;;;10408353;28;20034;-80
2023/10/27 05:17:26;;;;;;;73.37;39.07;;;;;;;;;;10408206;28;20037;-80
2023/10/27 05:22:27;;;;;;;52.87;27.67;;;;;;;;;;10408379;28;20033;-81
2023/10/27 05:27:28;;;;;;;52.47;26.40;;;;;;;;;;10406879;28;20409;-81
2023/10/27 05:32:33;;;;;;;45.53;24.30;;;;;;;;;;10407928;28;20029;-81
2023/10/27 05:37:34;;;;;;;67.00;35.07;;;;;;;;;;10407690;28;20159;-80
2023/10/27 05:42:35;;;;;;;56.47;31.47;;;;;;;;;;10407765;28;20029;-80
2023/10/27 05:47:36;;;;;;;64.20;36.83;;;;;;;;;;10407536;28;20026;-81
2023/10/27 05:52:37;;;;;;;63.80;32.03;;;;;;;;;;10408131;28;20060;-81
2023/10/27 05:57:38;;;;;;;52.73;31.83;;;;;;;;;;10406164;28;20042;-80
2023/10/27 06:02:39;;;;;;;51.87;28.33;;;;;;;;;;10405355;28;20485;-80
2023/10/27 06:07:40;;;;;;;48.23;26.47;;;;;;;;;;10406871;28;20026;-80
2023/10/27 06:12:41;;;;;;;32.93;19.63;;;;;;;;;;10406349;28;20029;-80
2023/10/27 06:17:43;;;;;;;36.03;20.73;;;;;;;;;;10405595;28;20041;-80
2023/10/27 06:22:45;;;;;;;48.57;25.17;;;;;;;;;;10405730;28;20029;-83
2023/10/27 06:27:46;;;;;;;42.37;24.27;;;;;;;;;;10404708;28;20057;-81
2023/10/27 06:32:48;;;;;;;49.97;27.87;;;;;;;;;;10405038;28;20037;-79
2023/10/27 06:37:49;;;;;;;55.37;29.07;;;;;;;;;;10405003;28;20049;-81
2023/10/27 06:42:50;;;;;;;42.23;25.03;;;;;;;;;;10405489;28;20104;-80
2023/10/27 06:47:51;;;;;;;67.20;37.47;;;;;;;;;;10404331;28;20119;-80
2023/10/27 06:52:52;;;;;;;73.87;42.47;;;;;;;;;;10404991;28;20086;-81
2023/10/27 06:57:53;;;;;;;66.87;38.20;;;;;;;;;;10404054;28;20061;-80
2023/10/27 07:02:54;;;;;;;80.30;41.50;;;;;;;;;;10403606;28;20031;-80
2023/10/27 07:07:55;;;;;;;56.87;33.70;;;;;;;;;;10399023;28;20045;-81
2023/10/27 07:12:56;;;;;;;66.30;32.40;;;;;;;;;;10403793;28;20033;-79
2023/10/27 07:17:57;;;;;;;47.67;26.77;;;;;;;;;;10403475;28;20037;-81
2023/10/27 07:22:58;;;;;;;51.57;27.90;;;;;;;;;;10402027;28;20021;-84
2023/10/27 07:27:59;;;;;;;58.40;30.07;;;;;;;;;;10403155;28;20490;-81
2023/10/27 07:33:06;;;;;;;57.40;30.00;;;;;;;;;;10402799;28;20040;-83
2023/10/27 07:38:07;;;;;;;69.57;33.63;;;;;;;;;;10403206;28;20086;-83
2023/10/27 07:43:08;;;;;;;65.20;32.37;;;;;;;;;;10390342;28;20029;-80
2023/10/27 07:48:09;;;;;;;73.17;34.40;;;;;;;;;;10403270;28;20474;-83
2023/10/27 07:53:11;;;;;;;65.77;32.93;;;;;;;;;;10402693;28;20124;-80
2023/10/27 07:58:12;;;;;;;60.60;31.60;;;;;;;;;;10402453;28;20857;-81
2023/10/27 08:03:13;;;;;;;69.37;34.07;;;;;;;;;;10402939;28;20578;-81
2023/10/27 08:08:14;;;;;;;66.07;34.83;;;;;;;;;;10402279;28;20032;-82
2023/10/27 08:13:16;;;;;;;67.90;34.77;;;;;;;;;;10401845;28;20025;-81
2023/10/27 08:18:17;;;;;;;77.20;39.07;;;;;;;;;;10401838;28;20451;-80
2023/10/27 08:23:20;;;;;;;76.90;42.13;;;;;;;;;;10401567;28;20536;-82
2023/10/27 08:28:21;;;;;;;70.57;39.92;;;;;;;;;;10405732;28;20670;-81
2023/10/27 08:33:22;;;;;;;82.23;42.03;;;;;;;;;;10409893;28;20109;-82
2023/10/27 08:38:23;;;;;;;84.20;41.95;;;;;;;;;;10409759;28;20366;-81
2023/10/27 08:43:24;;;;;;;87.43;43.80;;;;;;;;;;10409237;28;20037;-82
2023/10/27 08:48:25;;;;;;;85.75;44.40;;;;;;;;;;10409404;28;20482;-83
2023/10/27 08:53:26;;;;;;;89.83;43.67;;;;;;;;;;10408877;28;20032;-82
2023/10/27 08:58:27;;;;;;;85.82;42.70;;;;;;;;;;10408676;28;20487;-81
2023/10/27 09:03:28;;;;;;;76.80;40.88;;;;;;;;;;10408431;28;20504;-80
2023/10/27 09:08:29;;;;;;;75.75;39.55;;;;;;;;;;10408414;28;20026;-85
2023/10/27 09:13:38;;;;;;;79.15;39.80;;;;;;;;;;10390247;28;20060;-81
2023/10/27 09:18:39;;;;;;;67.32;36.30;;;;;;;;;;10408259;28;20124;-81
2023/10/27 09:23:47;;;;;;;61.97;33.17;;;;;;;;;;10407915;28;20648;-81
2023/10/27 09:29:00;;;;;;;60.40;33.35;;;;;;;;;;10406550;28;20668;-83
2023/10/27 09:34:34;;;;;;;58.28;32.22;;;;;;;;;;10407474;28;20021;-81
2023/10/27 09:39:36;;;;;;;65.85;35.00;;;;;;;;;;10383186;28;20067;-81
2023/10/27 09:44:41;;;;;;;62.80;33.85;;;;;;;;;;10406717;28;20091;-83
2023/10/27 09:49:42;;;;;;;75.93;36.43;;;;;;;;;;10406881;28;20041;-82
2023/10/27 09:54:43;;;;;;;83.40;39.67;;;;;;;;;;10406354;28;20065;-81
2023/10/27 09:59:45;;;;;;;73.53;38.45;;;;;;;;;;10406209;28;20084;-81
2023/10/27 10:04:52;;;;;;;80.63;39.47;;;;;;;;;;10406656;28;20469;-81
2023/10/27 10:09:53;;;;;;;80.30;39.70;;;;;;;;;;10406364;28;20116;-81
2023/10/27 10:14:58;;;;;;;79.32;40.15;;;;;;;;;;10406215;28;20545;-80
2023/10/27 10:19:59;;;;;;;93.00;44.00;;;;;;;;;;10405560;28;20577;-81
2023/10/27 10:25:15;;;;;;;93.93;44.38;;;;;;;;;;10405704;28;20034;-81
2023/10/27 10:30:20;;;;;;;85.13;41.92;;;;;;;;;;10403388;28;20064;-86
2023/10/27 10:35:22;;;;;;;94.60;45.40;;;;;;;;;;10403272;28;20663;-83
2023/10/27 10:40:24;;;;;;;81.03;43.65;;;;;;;;;;10401584;28;20021;-81
2023/10/27 10:45:32;;;;;;;77.47;41.55;;;;;;;;;;10402141;28;20075;-80
2023/10/27 10:50:40;;;;;;;73.32;38.53;;;;;;;;;;10437333;28;20074;-85
2023/10/27 10:55:41;;;;;;;63.40;35.55;;;;;;;;;;10419729;28;20408;-81
2023/10/27 11:00:43;;;;;;;66.22;35.20;;;;;;;;;;10409885;28;20083;-83
2023/10/27 11:05:44;;;;;;;61.28;33.28;;;;;;;;;;10414308;28;20029;-83
2023/10/27 11:10:45;;;;;;;67.80;35.45;;;;;;;;;;10428273;28;20116;-83
2023/10/27 11:15:51;;;;;;;61.92;32.95;;;;;;;;;;10384864;28;20397;-84
2023/10/27 11:20:52;;;;;;;64.38;32.05;;;;;;;;;;10417452;28;20029;-84
2023/10/27 11:26:00;;;;;;;68.93;34.92;;;;;;;;;;10403837;28;20036;-85
2023/10/27 11:31:12;;;;;;;69.97;36.85;;;;;;;;;;10402042;28;20452;-83
2023/10/27 11:36:13;;;;;;;85.00;44.67;;;;;;;;;;10404131;28;20124;-86
2023/10/27 11:41:14;;;;;;;88.57;51.65;;;;;;;;;;10426332;28;20049;-85
2023/10/27 11:46:20;;;;;;;104.07;54.65;;;;;;;;;;10399588;28;20544;-84
2023/10/27 11:51:21;;;;;;;;;;;;;;;;;;10416544;28;20057;-83
2023/10/27 11:56:22;;;;;;;95.43;50.42;;;;;;;;;;10416535;28;19920;-87
2023/10/27 12:01:23;;;;;;;86.40;45.33;;;;;;;;;;10411116;28;20033;-84
2023/10/27 12:06:25;;;;;;;74.97;39.78;;;;;;;;;;10413845;28;20083;-85
2023/10/27 12:11:29;;;;;;;73.55;38.90;;;;;;;;;;10430835;28;20476;-80
2023/10/27 12:16:30;;;;;;;74.60;39.55;;;;;;;;;;10407595;28;20033;-81
2023/10/27 12:21:32;;;;;;;74.55;39.60;;;;;;;;;;10426739;28;20124;-81
2023/10/27 12:26:33;;;;;;;63.47;32.63;;;;;;;;;;10425350;28;20140;-84
2023/10/27 12:31:34;;;;;;;62.88;33.03;;;;;;;;;;10417817;28;20156;-82
2023/10/27 12:36:35;;;;;;;46.30;27.40;;;;;;;;;;10416428;28;20358;-81
2023/10/27 12:41:36;;;;;;;56.75;30.48;;;;;;;;;;10400187;28;20025;-82
2023/10/27 12:46:37;;;;;;;65.47;31.38;;;;;;;;;;10415934;28;20029;-82
2023/10/27 12:51:38;;;;;;;50.90;28.75;;;;;;;;;;10427830;28;20053;-84
2023/10/27 12:56:39;;;;;;;51.72;27.95;;;;;;;;;;10421404;28;20037;-81
2023/10/27 13:01:40;;;;;;;56.83;29.58;;;;;;;;;;10404969;28;20039;-85
2023/10/27 13:06:41;;;;;;;60.50;29.67;;;;;;;;;;10407509;28;20401;-81
2023/10/27 13:11:43;;;;;;;52.97;27.67;;;;;;;;;;10412847;28;20047;-83
2023/10/27 13:16:44;;;;;;;48.47;25.55;;;;;;;;;;10415382;28;20037;-81
2023/10/27 13:21:45;;;;;;;58.63;27.25;;;;;;;;;;10405978;28;20030;-81
2023/10/27 13:26:46;;;;;;;46.20;25.52;;;;;;;;;;10410353;28;20056;-84
2023/10/27 13:31:47;;;;;;;42.30;22.27;;;;;;;;;;10375485;28;20030;-80
2023/10/27 13:36:49;;;;;;;44.22;23.48;;;;;;;;;;10364381;28;20972;-82
2023/10/27 13:41:50;;;;;;;49.40;25.05;;;;;;;;;;10376962;28;20363;-82
2023/10/27 13:46:59;;;;;;;40.30;23.00;;;;;;;;;;10366081;28;20057;-83
2023/10/27 13:52:00;;;;;;;47.33;23.00;;;;;;;;;;10355265;28;20125;-81
2023/10/27 13:57:01;;;;;;;42.80;22.02;;;;;;;;;;10374144;28;20045;-80
2023/10/27 14:02:03;;;;;;;36.85;20.95;;;;;;;;;;10371400;28;20045;-85
2023/10/27 14:07:04;;;;;;;34.55;19.95;;;;;;;;;;10346911;28;20042;-81
2023/10/27 14:12:05;;;;;;;34.35;18.85;;;;;;;;;;10372914;28;20032;-80
2023/10/27 14:17:08;;;;;;;36.88;18.83;;;;;;;;;;10369272;28;20401;-82
2023/10/27 14:22:09;;;;;;;28.67;16.38;;;;;;;;;;10362735;28;20474;-81
2023/10/27 14:27:17;;;;;;;29.23;14.60;;;;;;;;;;10328710;28;1039434;-83
2023/10/27 14:32:18;;;;;;;27.35;15.52;;;;;;;;;;10372315;28;20030;-82
2023/10/27 14:37:19;;;;;;;30.63;17.13;;;;;;;;;;10366635;28;20038;-81
2023/10/27 14:42:20;;;;;;;29.63;16.27;;;;;;;;;;10369770;28;20037;-83
2023/10/27 14:47:24;;;;;;;27.90;15.93;;;;;;;;;;10380494;28;20035;-80
2023/10/27 14:52:25;;;;;;;25.50;14.98;;;;;;;;;;10365933;28;20029;-84
2023/10/27 14:57:26;;;;;;;33.33;17.60;;;;;;;;;;10374719;28;20124;-83
2023/10/27 15:02:27;;;;;;;40.53;21.70;;;;;;;;;;10394912;28;20034;-83
2023/10/27 15:07:28;;;;;;;38.35;20.85;;;;;;;;;;10380372;28;20037;-80
2023/10/27 15:12:29;;;;;;;42.40;22.20;;;;;;;;;;10396414;28;20029;-85
2023/10/27 15:17:30;;;;;;;45.15;25.38;;;;;;;;;;10393518;28;20033;-85
2023/10/27 15:22:31;;;;;;;47.65;25.27;;;;;;;;;;10394543;28;20872;-81
2023/10/27 15:27:39;;;;;;;52.17;26.65;;;;;;;;;;10395253;28;20071;-82
2023/10/27 15:32:40;;;;;;;42.42;23.67;;;;;;;;;;10390475;28;20061;-82
2023/10/27 15:37:42;;;;;;;53.58;27.15;;;;;;;;;;10379230;28;20045;-80
2023/10/27 15:42:43;;;;;;;50.30;27.42;;;;;;;;;;10384668;28;20034;-81
2023/10/27 15:47:47;;;;;;;54.38;30.30;;;;;;;;;;10380819;28;20042;-84
2023/10/27 15:52:48;;;;;;;48.60;27.17;;;;;;;;;;10393422;28;20037;-83
2023/10/27 15:57:49;;;;;;;56.30;30.67;;;;;;;;;;10395857;28;20045;-81
2023/10/27 16:02:50;;;;;;;67.78;32.75;;;;;;;;;;10375599;28;20378;-83
2023/10/27 16:07:52;;;;;;;64.22;32.10;;;;;;;;;;10385742;28;20029;-82
2023/10/27 16:12:53;;;;;;;61.60;31.20;;;;;;;;;;10400791;28;20128;-83
2023/10/27 16:17:54;;;;;;;65.97;33.30;;;;;;;;;;10392105;28;20104;-81
2023/10/27 16:22:55;;;;;;;54.63;29.63;;;;;;;;;;10387026;28;20477;-83
2023/10/27 16:27:56;;;;;;;49.05;25.85;;;;;;;;;;10393197;28;20045;-82
2023/10/27 16:33:00;;;;;;;46.88;25.10;;;;;;;;;;10395872;28;20444;-84
2023/10/27 16:38:02;;;;;;;46.67;26.00;;;;;;;;;;10358614;28;20042;-82
2023/10/27 16:43:03;;;;;;;44.17;22.93;;;;;;;;;;10364503;28;20022;-82
2023/10/27 16:48:11;;;;;;;52.38;26.13;;;;;;;;;;10381801;28;20042;-84
2023/10/27 16:53:12;;;;;;;58.70;28.73;;;;;;;;;;10384125;28;20128;-82
2023/10/27 16:58:13;;;;;;;49.00;25.95;;;;;;;;;;10367816;28;20049;-81
2023/10/27 17:03:14;;;;;;;44.50;24.40;;;;;;;;;;10369915;28;20036;-82
2023/10/27 17:08:22;;;;;;;50.65;24.33;;;;;;;;;;10364153;28;20494;-81
2023/10/27 17:13:29;;;;;;;33.58;18.80;;;;;;;;;;10377781;28;20067;-81
2023/10/27 17:18:32;;;;;;;32.42;17.30;;;;;;;;;;10348162;28;20135;-82
2023/10/27 17:23:33;;;;;;;30.55;18.35;;;;;;;;;;10372001;28;20038;-82
2023/10/27 17:28:43;;;;;;;31.97;19.03;;;;;;;;;;10370830;28;20061;-83
2023/10/27 17:33:44;;;;;;;32.03;19.92;;;;;;;;;;10374315;28;20030;-82
2023/10/27 17:38:45;;;;;;;33.77;19.77;;;;;;;;;;10365914;28;20038;-83
2023/10/27 17:43:46;;;;;;;37.80;21.27;;;;;;;;;;10362561;28;20030;-85
2023/10/27 17:48:48;;;;;;;52.88;24.05;;;;;;;;;;10367867;28;20122;-83
2023/10/27 17:53:49;;;;;;;35.33;21.10;;;;;;;;;;10366205;28;20026;-86
2023/10/27 17:58:50;;;;;;;36.50;19.70;;;;;;;;;;10373083;28;20049;-84
2023/10/27 18:03:51;;;;;;;41.85;21.67;;;;;;;;;;10365528;28;20060;-82
2023/10/27 18:08:52;;;;;;;85.22;46.90;;;;;;;;;;10371645;28;20033;-81
2023/10/27 18:13:55;;;;;;;169.77;81.18;;;;;;;;;;10366230;28;20118;-82
2023/10/27 18:18:56;;;;;;;113.63;57.22;;;;;;;;;;10366863;28;20037;-81
2023/10/27 18:23:57;;;;;;;120.72;53.55;;;;;;;;;;10368879;28;20029;-82
2023/10/27 18:28:58;;;;;;;108.00;56.75;;;;;;;;;;10369852;28;20053;-85
2023/10/27 18:33:59;;;;;;;68.30;37.70;;;;;;;;;;10371888;28;20689;-84
2023/10/27 18:39:00;;;;;;;64.30;33.03;;;;;;;;;;10364331;28;20038;-82
2023/10/27 18:44:01;;;;;;;79.57;40.42;;;;;;;;;;10363755;28;20044;-84
2023/10/27 18:49:02;;;;;;;60.47;30.95;;;;;;;;;;10364004;28;20572;-82
2023/10/27 18:54:14;;;;;;;48.53;27.17;;;;;;;;;;10364495;28;20038;-82
2023/10/27 18:59:16;;;;;;;40.25;21.50;;;;;;;;;;10358078;28;20124;-82
2023/10/27 19:04:17;;;;;;;40.17;21.97;;;;;;;;;;10345821;28;20132;-82
2023/10/27 19:09:18;;;;;;;46.55;26.15;;;;;;;;;;10365104;28;20034;-82
2023/10/27 19:14:19;;;;;;;78.22;41.53;;;;;;;;;;10364529;28;20025;-83
2023/10/27 19:19:20;;;;;;;78.95;43.13;;;;;;;;;;10363482;28;20038;-83
2023/10/27 19:24:21;;;;;;;110.05;57.25;;;;;;;;;;10362136;28;20040;-85
2023/10/27 19:29:26;;;;;;;99.03;51.17;;;;;;;;;;10365041;28;20384;-85
2023/10/27 19:34:28;;;;;;;82.60;44.67;;;;;;;;;;10377955;28;20112;-86
2023/10/27 19:39:31;;;;;;;86.20;45.67;;;;;;;;;;10367831;28;20136;-83
2023/10/27 19:44:33;;;;;;;80.05;42.83;;;;;;;;;;10365596;28;20064;-82
2023/10/27 19:49:35;;;;;;;83.45;42.78;;;;;;;;;;10360781;28;20033;-83
2023/10/27 19:54:37;;;;;;;153.07;55.38;;;;;;;;;;10359655;28;20045;-83
2023/10/27 19:59:38;;;;;;;96.95;48.20;;;;;;;;;;10352884;28;20045;-82
2023/10/27 20:04:39;;;;;;;66.25;34.95;;;;;;;;;;10344718;28;20037;-82
2023/10/27 20:09:42;;;;;;;58.13;33.38;;;;;;;;;;10360519;28;20492;-86
2023/10/27 20:14:43;;;;;;;64.40;33.00;;;;;;;;;;10362559;28;20128;-82
2023/10/27 20:19:44;;;;;;;69.35;36.28;;;;;;;;;;10361736;28;20042;-83
2023/10/27 20:24:48;;;;;;;106.45;46.97;;;;;;;;;;10366198;28;20029;-84
2023/10/27 20:29:49;;;;;;;86.88;39.33;;;;;;;;;;10375096;28;20065;-82
2023/10/27 20:34:50;;;;;;;95.38;39.50;;;;;;;;;;10366774;28;20038;-82
2023/10/27 20:39:51;;;;;;;108.78;47.55;;;;;;;;;;10370707;28;20095;-83
2023/10/27 20:44:52;;;;;;;103.75;43.80;;;;;;;;;;10368595;28;20026;-82
2023/10/27 20:49:53;;;;;;;145.30;53.25;;;;;;;;;;10368453;28;20029;-84
2023/10/27 20:54:54;;;;;;;102.72;45.97;;;;;;;;;;10367336;28;20077;-82
2023/10/27 20:59:55;;;;;;;108.00;50.42;;;;;;;;;;10375945;28;20032;-84
2023/10/27 21:04:59;;;;;;;133.93;53.08;;;;;;;;;;10368022;28;20030;-82
2023/10/27 21:10:00;;;;;;;119.15;49.63;;;;;;;;;;10367688;28;20099;-84
2023/10/27 21:15:05;;;;;;;110.43;45.15;;;;;;;;;;10367357;28;20513;-84
2023/10/27 21:20:07;;;;;;;113.55;48.17;;;;;;;;;;10374405;28;20036;-83
2023/10/27 21:25:08;;;;;;;103.03;46.80;;;;;;;;;;10370030;28;20061;-82
2023/10/27 21:30:10;;;;;;;81.53;41.22;;;;;;;;;;10374819;28;20124;-82
2023/10/27 21:35:11;;;;;;;107.30;43.28;;;;;;;;;;10366951;28;20400;-82
2023/10/27 21:40:12;;;;;;;78.70;36.97;;;;;;;;;;10366163;28;20381;-82
2023/10/27 21:45:13;;;;;;;59.22;28.63;;;;;;;;;;10367209;28;20038;-81
2023/10/27 21:50:14;;;;;;;72.43;32.60;;;;;;;;;;10372434;28;20037;-82
2023/10/27 21:55:16;;;;;;;61.63;31.97;;;;;;;;;;10365121;28;20037;-82
2023/10/27 22:05:36;;;;;;;77.15;32.28;;;;;;;;;;10365239;28;20551;-85
2023/10/27 22:10:37;;;;;;;64.85;29.00;;;;;;;;;;10358499;28;20053;-81
2023/10/27 22:15:39;;;;;;;73.63;28.42;;;;;;;;;;10369308;28;20133;-85
2023/10/27 22:20:41;;;;;;;49.63;26.08;;;;;;;;;;10347272;28;20038;-83
2023/10/27 22:25:43;;;;;;;51.38;25.75;;;;;;;;;;10367568;28;20029;-84
2023/10/27 22:30:45;;;;;;;54.85;27.17;;;;;;;;;;10375809;28;20154;-81
2023/10/27 22:35:46;;;;;;;60.00;29.95;;;;;;;;;;10371619;28;20046;-85
2023/10/27 22:40:47;;;;;;;71.20;34.63;;;;;;;;;;10362901;28;20638;-82
2023/10/27 22:45:55;;;;;;;112.75;41.38;;;;;;;;;;10364677;28;20064;-81
2023/10/27 22:50:57;;;;;;;94.82;38.67;;;;;;;;;;10364049;28;20112;-81
2023/10/27 22:55:59;;;;;;;87.45;37.42;;;;;;;;;;10372010;28;20096;-82
2023/10/27 23:01:00;;;;;;;111.80;42.95;;;;;;;;;;10357798;28;20076;-80
2023/10/27 23:06:09;;;;;;;93.00;41.30;;;;;;;;;;10387771;28;20857;-82
2023/10/27 23:11:11;;;;;;;77.63;37.20;;;;;;;;;;10362879;28;20490;-83
2023/10/27 23:16:12;;;;;;;80.60;37.15;;;;;;;;;;10375291;28;20068;-81
2023/10/27 23:21:13;;;;;;;70.97;35.22;;;;;;;;;;10363434;28;20034;-84
2023/10/27 23:26:15;;;;;;;68.85;34.58;;;;;;;;;;10378682;28;20128;-84
2023/10/27 23:31:17;;;;;;;70.03;32.67;;;;;;;;;;10363538;28;20058;-81
2023/10/27 23:36:19;;;;;;;51.58;28.65;;;;;;;;;;10353714;28;20390;-84
2023/10/27 23:41:20;;;;;;;55.17;29.55;;;;;;;;;;10363183;28;20040;-81
2023/10/27 23:46:21;;;;;;;60.22;30.95;;;;;;;;;;10361168;28;20026;-82
2023/10/27 23:51:22;;;;;;;49.25;26.67;;;;;;;;;;10363916;28;20651;-82
2023/10/27 23:56:23;;;;;;;48.83;25.55;;;;;;;;;;10360723;28;20042;-81
